createdAt,value
2022-10-06T00:01:10.061Z,93.33
2022-10-06T00:03:38.912Z,93.26
2022-10-06T00:06:08.605Z,93.45
2022-10-06T00:08:38.493Z,94.06
2022-10-06T00:11:07.307Z,94.88
2022-10-06T00:13:35.393Z,94.21
2022-10-06T00:16:08.841Z,94.71
2022-10-06T00:18:36.902Z,95.30
2022-10-06T00:21:04.793Z,94.32
2022-10-06T00:23:32.977Z,94.20
2022-10-06T00:26:00.966Z,94.68
2022-10-06T00:28:29.147Z,95.22
2022-10-06T00:31:02.064Z,93.76
2022-10-06T00:33:29.994Z,94.09
2022-10-06T00:35:59.342Z,94.67
2022-10-06T00:38:28.225Z,94.78
2022-10-06T00:40:57.090Z,94.29
2022-10-06T00:43:49.358Z,94.70
2022-10-06T00:46:52.747Z,95.00
2022-10-06T00:49:32.832Z,94.17
2022-10-06T00:52:09.249Z,94.02
2022-10-06T00:54:37.303Z,94.65
2022-10-06T00:57:06.221Z,94.30
2022-10-06T00:59:35.465Z,95.31
2022-10-06T01:02:10.701Z,95.00
2022-10-06T01:04:45.245Z,95.13
2022-10-06T01:07:13.222Z,95.07
2022-10-06T01:09:41.521Z,95.75
2022-10-06T01:12:10.294Z,95.34
2022-10-06T01:14:40.258Z,95.36
2022-10-06T01:17:22.373Z,95.38
2022-10-06T01:20:00.325Z,94.91
2022-10-06T01:22:35.456Z,95.30
2022-10-06T01:25:06.394Z,96.25
2022-10-06T01:27:37.310Z,96.48
2022-10-06T01:30:08.819Z,96.61
2022-10-06T01:32:39.247Z,95.97
2022-10-06T01:35:08.784Z,96.33
2022-10-06T01:37:37.060Z,96.52
2022-10-06T01:40:05.844Z,96.24
2022-10-06T01:42:36.556Z,95.98
2022-10-06T01:45:08.582Z,96.94
2022-10-06T01:47:36.412Z,97.22
2022-10-06T01:50:06.742Z,96.96
2022-10-06T01:52:36.632Z,97.53
2022-10-06T01:55:04.986Z,98.05
2022-10-06T01:57:40.103Z,97.25
2022-10-06T02:00:09.642Z,97.18
2022-10-06T02:02:41.260Z,97.10
2022-10-06T02:05:10.062Z,96.83
2022-10-06T02:07:41.280Z,97.07
2022-10-06T02:10:09.936Z,96.31
2022-10-06T02:12:37.810Z,95.83
2022-10-06T02:15:06.639Z,96.26
2022-10-06T02:17:34.672Z,96.73
2022-10-06T02:20:02.453Z,96.79
2022-10-06T02:22:30.293Z,97.13
2022-10-06T02:24:58.284Z,96.85
2022-10-06T02:27:26.524Z,95.55
2022-10-06T02:29:56.025Z,95.18
2022-10-06T02:32:24.200Z,95.12
2022-10-06T02:34:52.234Z,94.81
2022-10-06T02:37:19.962Z,96.49
2022-10-06T02:39:47.796Z,96.61
2022-10-06T02:42:15.709Z,96.87
2022-10-06T02:44:43.517Z,97.23
2022-10-06T02:47:15.000Z,97.32
2022-10-06T02:49:42.956Z,97.18
2022-10-06T02:52:11.506Z,97.54
2022-10-06T02:54:39.348Z,97.55
2022-10-06T02:57:07.150Z,98.04
2022-10-06T02:59:35.387Z,97.85
2022-10-06T03:02:05.206Z,98.10
2022-10-06T03:04:33.178Z,98.63
2022-10-06T03:07:01.125Z,98.83
2022-10-06T03:09:33.808Z,98.22
2022-10-06T03:12:01.959Z,98.17
2022-10-06T03:14:39.767Z,98.32
2022-10-06T03:17:10.076Z,98.73
2022-10-06T03:19:42.803Z,97.85
2022-10-06T03:22:11.333Z,98.02
2022-10-06T03:24:45.112Z,97.67
2022-10-06T03:27:13.075Z,98.33
2022-10-06T03:29:40.992Z,98.59
2022-10-06T03:32:09.060Z,98.66
2022-10-06T03:34:37.934Z,98.87
2022-10-06T03:37:08.767Z,99.01
2022-10-06T03:39:36.742Z,99.56
2022-10-06T03:42:04.702Z,99.29
2022-10-06T03:44:35.238Z,99.41
2022-10-06T03:47:03.980Z,99.58
2022-10-06T03:49:33.084Z,99.11
2022-10-06T03:52:01.095Z,99.19
2022-10-06T03:54:33.368Z,99.10
2022-10-06T03:57:01.426Z,99.21
2022-10-06T03:59:34.225Z,99.29
2022-10-06T04:02:05.535Z,99.44
2022-10-06T04:04:37.835Z,100.00
2022-10-06T04:07:09.276Z,100.00
2022-10-06T04:09:37.141Z,100.00
2022-10-06T04:12:05.001Z,99.40
2022-10-06T04:14:35.530Z,99.28
2022-10-06T04:17:04.358Z,98.77
2022-10-06T04:19:35.319Z,98.22
2022-10-06T04:22:03.738Z,98.79
2022-10-06T04:24:32.323Z,98.41
2022-10-06T04:27:20.304Z,98.40
2022-10-06T04:29:56.604Z,98.39
2022-10-06T04:32:24.933Z,98.55
2022-10-06T04:34:53.342Z,98.22
2022-10-06T04:37:21.145Z,98.82
2022-10-06T04:39:49.898Z,98.79
2022-10-06T04:42:19.120Z,99.17
2022-10-06T04:44:47.298Z,99.10
2022-10-06T04:47:15.167Z,97.63
2022-10-06T04:49:42.988Z,98.04
2022-10-06T04:52:11.147Z,97.85
2022-10-06T04:54:41.329Z,98.18
2022-10-06T04:57:10.135Z,98.05
2022-10-06T04:59:56.262Z,97.68
2022-10-06T05:02:26.124Z,97.60
2022-10-06T05:04:57.417Z,97.60
2022-10-06T05:07:26.234Z,97.86
2022-10-06T05:09:57.599Z,98.44
2022-10-06T05:12:25.461Z,98.36
2022-10-06T05:14:53.365Z,98.69
2022-10-06T05:17:21.281Z,98.61
2022-10-06T05:19:49.281Z,98.35
2022-10-06T05:22:17.737Z,98.57
2022-10-06T05:24:46.417Z,98.79
2022-10-06T05:27:14.210Z,97.46
2022-10-06T05:29:42.207Z,98.08
2022-10-06T05:32:10.921Z,98.37
2022-10-06T05:34:38.864Z,98.56
2022-10-06T05:37:07.442Z,98.67
2022-10-06T05:39:36.022Z,98.60
2022-10-06T05:42:04.104Z,98.68
2022-10-06T05:44:32.956Z,97.51
2022-10-06T05:47:05.738Z,98.52
2022-10-06T05:49:33.858Z,97.95
2022-10-06T05:52:04.212Z,98.09
2022-10-06T05:54:34.712Z,97.27
2022-10-06T05:57:03.008Z,97.18
2022-10-06T05:59:33.026Z,97.20
2022-10-06T06:02:02.026Z,96.21
2022-10-06T06:04:40.049Z,96.37
2022-10-06T06:07:09.759Z,96.24
2022-10-06T06:09:38.867Z,95.63
2022-10-06T06:12:06.882Z,94.35
2022-10-06T06:15:07.201Z,94.93
2022-10-06T06:17:53.700Z,95.71
2022-10-06T06:20:21.678Z,93.57
2022-10-06T06:22:53.586Z,92.75
2022-10-06T06:25:24.459Z,92.09
2022-10-06T06:27:55.471Z,92.70
2022-10-06T06:30:24.505Z,92.47
2022-10-06T06:32:58.216Z,92.83
2022-10-06T06:35:26.398Z,91.91
2022-10-06T06:37:54.314Z,91.95
2022-10-06T06:40:22.339Z,90.64
2022-10-06T06:42:53.687Z,90.62
2022-10-06T06:45:54.065Z,89.89
2022-10-06T06:48:36.032Z,89.05
2022-10-06T06:51:07.867Z,89.20
2022-10-06T06:53:35.851Z,88.65
2022-10-06T06:56:05.139Z,88.94
2022-10-06T06:58:37.827Z,87.94
2022-10-06T07:01:13.889Z,88.29
2022-10-06T07:03:57.731Z,88.90
2022-10-06T07:06:30.771Z,87.81
2022-10-06T07:09:01.150Z,87.02
2022-10-06T07:11:33.221Z,86.47
2022-10-06T07:14:07.843Z,85.83
2022-10-06T07:16:54.493Z,85.09
2022-10-06T07:19:41.611Z,84.51
2022-10-06T07:22:28.810Z,84.07
2022-10-06T07:25:07.370Z,83.39
2022-10-06T07:27:42.566Z,83.04
2022-10-06T07:30:19.249Z,82.24
2022-10-06T07:32:51.451Z,80.89
2022-10-06T07:35:21.461Z,78.77
2022-10-06T07:37:53.325Z,79.84
2022-10-06T07:40:23.656Z,78.75
2022-10-06T07:42:52.473Z,77.40
2022-10-06T07:45:39.783Z,76.34
2022-10-06T07:48:19.774Z,76.15
2022-10-06T07:50:53.329Z,74.87
2022-10-06T07:53:28.199Z,73.67
2022-10-06T07:56:07.686Z,74.41
2022-10-06T07:58:40.831Z,73.99
2022-10-06T08:01:11.559Z,72.55
2022-10-06T08:03:41.276Z,72.09
2022-10-06T08:06:14.063Z,71.86
2022-10-06T08:08:43.851Z,72.08
2022-10-06T08:11:12.832Z,71.19
2022-10-06T08:13:47.747Z,71.37
2022-10-06T08:16:24.563Z,71.59
2022-10-06T08:18:54.168Z,68.53
2022-10-06T08:21:29.472Z,68.56
2022-10-06T08:23:58.981Z,68.36
2022-10-06T08:26:28.547Z,66.45
2022-10-06T08:29:06.042Z,65.64
2022-10-06T08:31:33.888Z,65.51
2022-10-06T08:34:01.824Z,64.16
2022-10-06T08:36:32.309Z,64.51
2022-10-06T08:39:01.508Z,63.87
2022-10-06T08:41:32.457Z,63.19
2022-10-06T08:44:02.496Z,63.03
2022-10-06T08:46:40.818Z,61.99
2022-10-06T08:49:18.092Z,61.03
2022-10-06T08:52:10.154Z,62.10
2022-10-06T08:54:45.567Z,62.57
2022-10-06T08:58:04.289Z,61.98
2022-10-06T09:00:37.030Z,62.69
2022-10-06T09:03:06.184Z,60.25
2022-10-06T09:05:35.108Z,60.03
2022-10-06T09:08:33.619Z,59.98
2022-10-06T09:11:21.696Z,59.44
2022-10-06T09:14:06.282Z,58.82
2022-10-06T09:16:38.857Z,58.09
2022-10-06T09:19:21.400Z,57.68
2022-10-06T09:21:49.129Z,57.43
2022-10-06T09:24:25.467Z,57.52
2022-10-06T09:26:57.583Z,57.30
2022-10-06T09:29:28.105Z,56.69
2022-10-06T09:31:55.947Z,56.59
2022-10-06T09:34:26.482Z,56.40
2022-10-06T09:37:14.832Z,57.59
2022-10-06T09:39:51.035Z,57.28
2022-10-06T09:42:21.331Z,58.50
2022-10-06T09:45:01.133Z,57.51
2022-10-06T09:47:46.014Z,59.29
2022-10-06T09:50:25.592Z,57.66
2022-10-06T09:53:03.575Z,57.88
2022-10-06T09:55:45.233Z,55.79
2022-10-06T09:58:19.084Z,57.99
2022-10-06T10:01:02.345Z,56.45
2022-10-06T10:06:41.879Z,56.97
2022-10-06T10:09:22.782Z,55.28
2022-10-06T10:12:30.337Z,54.80
2022-10-06T10:15:03.672Z,56.93
2022-10-06T10:17:38.210Z,57.38
2022-10-06T10:20:50.710Z,57.69
2022-10-06T10:23:28.647Z,58.19
2022-10-06T10:26:29.630Z,59.00
2022-10-06T10:29:03.390Z,53.82
2022-10-06T10:32:04.248Z,57.23
2022-10-06T10:34:59.485Z,56.23
2022-10-06T10:37:40.794Z,54.47
2022-10-06T10:40:29.851Z,53.55
2022-10-06T10:43:10.782Z,52.60
2022-10-06T10:45:51.447Z,51.08
2022-10-06T10:48:28.042Z,54.07
2022-10-06T10:51:03.056Z,52.60
2022-10-06T10:54:03.471Z,50.69
2022-10-06T10:56:33.884Z,52.93
2022-10-06T10:59:19.813Z,50.66
2022-10-06T11:01:58.160Z,49.95
2022-10-06T11:04:26.547Z,49.79
2022-10-06T11:07:03.274Z,52.40
2022-10-06T11:09:45.640Z,52.31
2022-10-06T11:12:33.903Z,54.98
2022-10-06T11:15:25.997Z,52.46
2022-10-06T11:17:57.790Z,52.27
2022-10-06T11:20:52.810Z,54.23
2022-10-06T11:23:52.863Z,52.63
2022-10-06T11:26:49.036Z,51.42
2022-10-06T11:29:44.535Z,49.33
2022-10-06T11:32:36.861Z,49.95
2022-10-06T11:35:22.109Z,50.20
2022-10-06T11:37:59.927Z,51.02
2022-10-06T11:41:06.169Z,47.78
2022-10-06T11:44:00.579Z,47.96
2022-10-06T11:46:45.305Z,46.98
2022-10-06T11:49:32.864Z,46.61
2022-10-06T11:52:08.466Z,45.76
2022-10-06T11:54:56.598Z,45.43
2022-10-06T11:57:30.263Z,46.30
2022-10-06T12:00:16.366Z,45.50
2022-10-06T12:02:47.045Z,45.28
2022-10-06T12:05:52.351Z,45.66
2022-10-06T12:08:03.954Z,47.32
2022-10-06T12:10:34.729Z,47.83
2022-10-06T12:14:15.641Z,47.86
2022-10-06T12:19:46.617Z,49.91
2022-10-06T12:22:28.378Z,50.67
2022-10-06T12:25:05.365Z,50.04
2022-10-06T12:27:59.174Z,50.22
2022-10-06T12:30:54.791Z,49.39
2022-10-06T12:33:37.240Z,49.26
2022-10-06T12:36:17.682Z,49.67
2022-10-06T12:39:05.316Z,50.18
2022-10-06T12:41:57.825Z,50.49
2022-10-06T12:44:34.882Z,51.80
2022-10-06T12:47:10.882Z,52.18
2022-10-06T12:49:55.153Z,51.36
2022-10-06T12:52:23.365Z,51.03
2022-10-06T12:55:36.149Z,51.23
2022-10-06T12:58:04.123Z,50.48
2022-10-06T13:00:42.690Z,50.02
2022-10-06T13:03:43.344Z,49.69
2022-10-06T13:06:12.317Z,50.78
2022-10-06T13:08:41.949Z,49.17
2022-10-06T13:11:15.974Z,48.94
2022-10-06T13:13:54.654Z,50.02
2022-10-06T13:16:29.156Z,50.21
2022-10-06T13:18:59.384Z,49.27
2022-10-06T13:21:30.550Z,48.38
2022-10-06T13:23:59.277Z,49.53
2022-10-06T13:26:33.238Z,48.84
2022-10-06T13:29:02.022Z,48.30
2022-10-06T13:31:35.782Z,48.65
2022-10-06T13:34:14.164Z,48.68
2022-10-06T13:36:50.960Z,49.22
2022-10-06T13:39:24.338Z,49.41
2022-10-06T13:42:04.220Z,49.56
2022-10-06T13:44:40.680Z,50.00
2022-10-06T13:47:20.637Z,50.26
2022-10-06T13:50:03.458Z,50.88
2022-10-06T13:52:41.132Z,51.81
2022-10-06T13:55:24.192Z,51.16
2022-10-06T13:58:09.372Z,50.78
2022-10-06T14:00:52.328Z,51.10
2022-10-06T14:03:40.465Z,51.09
2022-10-06T14:06:13.877Z,50.96
2022-10-06T14:08:46.095Z,51.17
2022-10-06T14:11:14.060Z,51.11
2022-10-06T14:13:49.566Z,51.39
2022-10-06T14:16:23.671Z,50.94
2022-10-06T14:18:58.527Z,51.07
2022-10-06T14:21:37.022Z,52.31
2022-10-06T14:24:18.281Z,52.01
2022-10-06T14:26:50.394Z,52.03
2022-10-06T14:29:19.513Z,51.38
2022-10-06T14:31:47.983Z,52.29
2022-10-06T14:34:18.215Z,52.17
2022-10-06T14:36:55.309Z,52.82
2022-10-06T14:39:24.814Z,52.42
2022-10-06T14:41:52.732Z,52.42
2022-10-06T14:44:21.955Z,52.15
2022-10-06T14:46:50.512Z,53.23
2022-10-06T14:49:18.857Z,52.70
2022-10-06T14:51:46.823Z,52.22
2022-10-06T14:54:14.867Z,53.40
2022-10-06T14:56:43.252Z,53.83
2022-10-06T14:59:17.366Z,54.03
2022-10-06T15:01:47.509Z,54.25
2022-10-06T15:04:20.783Z,54.09
2022-10-06T15:07:07.321Z,54.22
2022-10-06T15:09:36.463Z,54.18
2022-10-06T15:12:04.728Z,54.50
2022-10-06T15:14:33.823Z,53.51
2022-10-06T15:17:02.604Z,54.57
2022-10-06T15:19:30.975Z,55.27
2022-10-06T15:21:59.226Z,55.43
2022-10-06T15:24:27.304Z,55.24
2022-10-06T15:27:13.656Z,55.03
2022-10-06T15:29:42.499Z,54.78
2022-10-06T15:32:10.493Z,54.95
2022-10-06T15:34:38.619Z,54.95
2022-10-06T15:37:07.278Z,55.63
2022-10-06T15:39:37.893Z,55.56
2022-10-06T15:42:06.849Z,56.01
2022-10-06T15:44:35.646Z,56.18
2022-10-06T15:47:10.158Z,56.61
2022-10-06T15:49:40.676Z,57.69
2022-10-06T15:52:11.732Z,57.22
2022-10-06T15:54:41.006Z,58.43
2022-10-06T15:57:16.446Z,56.07
2022-10-06T15:59:48.186Z,56.44
2022-10-06T16:02:20.435Z,57.28
2022-10-06T16:05:18.023Z,59.49
2022-10-06T16:07:48.703Z,58.37
2022-10-06T16:10:17.378Z,57.99
2022-10-06T16:12:45.528Z,60.74
2022-10-06T16:15:13.791Z,59.16
2022-10-06T16:17:44.577Z,59.15
2022-10-06T16:20:16.779Z,59.36
2022-10-06T16:22:45.667Z,58.95
2022-10-06T16:25:18.334Z,59.29
2022-10-06T16:27:49.139Z,59.84
2022-10-06T16:30:19.502Z,59.71
2022-10-06T16:32:49.480Z,59.89
2022-10-06T16:35:18.977Z,59.18
2022-10-06T16:37:50.545Z,60.33
2022-10-06T16:40:19.924Z,60.21
2022-10-06T16:42:49.619Z,60.33
2022-10-06T16:45:19.182Z,61.50
2022-10-06T16:47:47.618Z,61.05
2022-10-06T16:50:15.913Z,61.33
2022-10-06T16:52:43.797Z,60.65
2022-10-06T16:55:12.084Z,62.59
2022-10-06T16:57:40.678Z,61.50
2022-10-06T17:00:11.941Z,62.52
2022-10-06T17:02:41.350Z,62.16
2022-10-06T17:05:09.580Z,62.85
2022-10-06T17:07:38.361Z,62.30
2022-10-06T17:10:20.144Z,63.59
2022-10-06T17:12:48.738Z,63.41
2022-10-06T17:15:16.672Z,62.74
2022-10-06T17:17:44.599Z,62.68
2022-10-06T17:20:12.441Z,63.15
2022-10-06T17:22:40.491Z,63.32
2022-10-06T17:25:08.853Z,63.77
2022-10-06T17:27:41.843Z,64.32
2022-10-06T17:30:10.392Z,63.83
2022-10-06T17:32:38.622Z,64.22
2022-10-06T17:35:07.738Z,64.29
2022-10-06T17:37:35.584Z,64.17
2022-10-06T17:40:03.646Z,64.43
2022-10-06T17:42:31.513Z,65.14
2022-10-06T17:45:00.171Z,65.56
2022-10-06T17:47:28.154Z,65.55
2022-10-06T17:49:57.520Z,65.52
2022-10-06T17:52:25.475Z,65.25
2022-10-06T17:54:54.545Z,66.52
2022-10-06T17:57:22.667Z,67.06
2022-10-06T17:59:50.514Z,66.63
2022-10-06T18:02:18.511Z,66.95
2022-10-06T18:04:50.047Z,67.21
2022-10-06T18:07:18.105Z,67.11
2022-10-06T18:10:05.933Z,67.57
2022-10-06T18:12:38.669Z,68.30
2022-10-06T18:15:07.305Z,68.91
2022-10-06T18:17:35.259Z,69.14
2022-10-06T18:20:03.795Z,69.37
2022-10-06T18:22:32.081Z,69.59
2022-10-06T18:25:00.219Z,69.74
2022-10-06T18:27:28.079Z,70.20
2022-10-06T18:29:56.397Z,71.29
2022-10-06T18:34:12.008Z,71.51
2022-10-06T18:38:03.330Z,73.36
2022-10-06T18:40:31.515Z,74.97
2022-10-06T18:43:00.516Z,74.78
2022-10-06T18:45:46.943Z,76.13
2022-10-06T18:48:34.223Z,76.00
2022-10-06T18:51:02.750Z,76.65
2022-10-06T18:53:33.588Z,77.59
2022-10-06T18:56:01.703Z,78.21
2022-10-06T18:58:29.756Z,78.78
2022-10-06T19:00:57.847Z,79.48
2022-10-06T19:03:35.608Z,79.81
2022-10-06T19:06:04.521Z,80.04
2022-10-06T19:08:32.435Z,80.82
2022-10-06T19:11:26.152Z,80.61
2022-10-06T19:13:55.781Z,81.73
2022-10-06T19:16:24.048Z,82.24
2022-10-06T19:18:52.299Z,82.19
2022-10-06T19:21:20.205Z,81.92
2022-10-06T19:23:48.241Z,82.17
2022-10-06T19:26:16.666Z,82.51
2022-10-06T19:28:44.647Z,82.96
2022-10-06T19:31:18.852Z,83.12
2022-10-06T19:33:51.325Z,83.42
2022-10-06T19:36:19.898Z,84.45
2022-10-06T19:38:53.048Z,84.72
2022-10-06T19:41:40.748Z,85.06
2022-10-06T19:44:12.221Z,84.77
2022-10-06T19:46:40.258Z,84.73
2022-10-06T19:49:08.456Z,85.18
2022-10-06T19:51:41.403Z,85.69
2022-10-06T19:54:11.795Z,85.33
2022-10-06T19:56:41.570Z,84.89
2022-10-06T19:59:14.935Z,86.10
2022-10-06T20:01:43.488Z,85.77
2022-10-06T20:04:12.079Z,85.70
2022-10-06T20:06:41.564Z,86.01
2022-10-06T20:09:12.343Z,86.86
2022-10-06T20:11:43.984Z,86.01
2022-10-06T20:14:19.713Z,86.01
2022-10-06T20:16:52.870Z,86.94
2022-10-06T20:19:22.108Z,85.78
2022-10-06T20:21:50.598Z,86.01
2022-10-06T20:24:22.856Z,86.29
2022-10-06T20:26:52.046Z,86.46
2022-10-06T20:29:23.142Z,86.63
2022-10-06T20:31:58.294Z,86.26
2022-10-06T20:34:32.275Z,87.09
2022-10-06T20:37:04.205Z,87.35
2022-10-06T20:39:52.324Z,87.42
2022-10-06T20:42:21.293Z,87.70
2022-10-06T20:44:49.348Z,87.88
2022-10-06T20:47:17.134Z,88.04
2022-10-06T20:49:45.055Z,88.60
2022-10-06T20:52:15.762Z,88.55
2022-10-06T20:54:44.252Z,88.27
2022-10-06T20:57:12.275Z,88.70
2022-10-06T20:59:45.413Z,88.86
2022-10-06T21:02:13.625Z,88.52
2022-10-06T21:04:43.714Z,88.47
2022-10-06T21:07:11.840Z,88.79
2022-10-06T21:09:40.519Z,88.87
2022-10-06T21:12:08.590Z,88.63
2022-10-06T21:14:37.820Z,88.64
2022-10-06T21:17:07.376Z,89.85
2022-10-06T21:19:37.859Z,88.54
2022-10-06T21:22:06.304Z,89.37
2022-10-06T21:24:34.178Z,88.82
2022-10-06T21:27:02.280Z,89.15
2022-10-06T21:29:30.267Z,89.85
2022-10-06T21:31:58.179Z,89.43
2022-10-06T21:34:26.725Z,88.86
2022-10-06T21:36:54.539Z,89.42
2022-10-06T21:39:22.565Z,88.78
2022-10-06T21:41:50.493Z,89.64
2022-10-06T21:44:19.113Z,89.44
2022-10-06T21:46:49.660Z,89.06
2022-10-06T21:49:20.377Z,89.75
2022-10-06T21:51:52.552Z,89.40
2022-10-06T21:54:22.205Z,89.45
2022-10-06T21:56:51.135Z,89.55
2022-10-06T21:59:19.305Z,89.78
2022-10-06T22:01:50.606Z,90.19
2022-10-06T22:04:21.549Z,89.45
2022-10-06T22:06:52.550Z,90.43
2022-10-06T22:09:20.993Z,89.88
2022-10-06T22:11:49.949Z,89.74
2022-10-06T22:14:21.200Z,90.11
2022-10-06T22:16:49.219Z,90.42
2022-10-06T22:19:18.123Z,90.81
2022-10-06T22:21:48.956Z,89.74
2022-10-06T22:24:20.965Z,89.46
2022-10-06T22:26:49.873Z,89.27
2022-10-06T22:29:19.757Z,89.88
2022-10-06T22:31:48.724Z,88.98
2022-10-06T22:34:19.269Z,90.70
2022-10-06T22:36:47.183Z,89.99
2022-10-06T22:39:15.334Z,89.45
2022-10-06T22:41:43.381Z,88.66
2022-10-06T22:44:11.232Z,89.32
2022-10-06T22:46:39.386Z,89.06
2022-10-06T22:49:07.241Z,89.53
2022-10-06T22:51:35.675Z,89.28
2022-10-06T22:54:04.340Z,90.34
2022-10-06T22:56:34.283Z,90.46
2022-10-06T22:59:02.236Z,89.55
2022-10-06T23:01:30.502Z,89.24
2022-10-06T23:03:58.942Z,89.44
2022-10-06T23:06:29.760Z,89.93
2022-10-06T23:08:57.928Z,89.31
2022-10-06T23:11:25.827Z,89.27
2022-10-06T23:13:53.770Z,89.86
2022-10-06T23:16:22.258Z,89.12
2022-10-06T23:18:50.489Z,88.50
2022-10-06T23:21:22.374Z,89.66
2022-10-06T23:23:52.694Z,88.95
2022-10-06T23:26:21.896Z,89.12
2022-10-06T23:28:56.095Z,89.09
2022-10-06T23:31:24.405Z,90.20
2022-10-06T23:33:55.250Z,89.58
2022-10-06T23:36:23.242Z,88.75
2022-10-06T23:38:51.453Z,88.85
2022-10-06T23:41:20.119Z,89.14
2022-10-06T23:43:47.984Z,89.21
2022-10-06T23:46:15.954Z,89.01
2022-10-06T23:48:43.889Z,89.24
2022-10-06T23:51:14.545Z,89.80
2022-10-06T23:53:43.237Z,88.62
2022-10-06T23:56:11.590Z,89.25
2022-10-06T23:58:39.914Z,88.91
